Upstream stations:
Downstream station:
SHEF ID: QUAO2 Spring River near Quapaw, OK
STATION TYPE:
Regulating: Stage = 20.00, Flow = 33676
PRECIP STAGE STAGE(2) RIV-FLOW BAT-LOAD
in ft ft cfs volt
Ccp-Rev Ccp-Rev Ccp-Rev Ccp-Rev Ccp-Rev
(US/Central)
03/31 00:00 0.00 7.57 7.83 1974 12.10
03/31 01:00 0.00 7.58 7.84 1988 12.06
03/31 02:00 0.00 7.58 7.86 1988 12.03
03/31 03:00 0.00 7.59 7.86 2001 12.04
03/31 04:00 0.00 7.59 7.86 2001 12.04
03/31 05:00 0.00 7.58 7.86 1988 12.02
03/31 06:00 0.00 7.59 7.87 2001 11.98
03/31 07:00 0.00 7.59 7.86 2001 11.97
03/31 08:00 0.00 7.60 7.86 2014 11.97
03/31 09:00 0.00 7.60 7.86 2014 11.99
03/31 10:00 0.00 7.58 7.86 1988 12.36
03/31 11:00 0.00 7.59 7.86 2001 12.64
03/31 12:00 0.00 7.58 7.86 1988 12.82
03/31 13:00 0.00 7.61 7.86 2028 13.06
03/31 14:00 0.00 7.57 7.84 1974 13.34
03/31 15:00 0.00 7.58 7.86 1988 13.28
03/31 16:00 0.00 7.59 7.86 2001 12.88
03/31 17:00 0.00 7.59 7.86 2001 12.86
03/31 18:00 0.00 7.59 7.87 2001 12.63
03/31 19:00 0.00 7.61 7.88 2028 12.64
03/31 20:00 0.00 7.62 7.89 2041 12.40
03/31 21:00 0.00 7.65 7.90 2082 12.25
03/31 22:00 0.00 7.66 7.92 2095 12.37
03/31 23:00 0.00 7.67 7.93 2109 12.40